Roll, Arizona
Current Conditions -  °F | °C
As of 1:57 PM on Friday 19 Dec 2014 (Local Time) from KNYL Reporting Station
Few Clouds Few Clouds  
Wind Chill: 66°   Ceiling: Unl
Heat Index: 66°   Visibility: 10mi
Dew Point: 39°   Wind: 3mph
Humidity: 37%   Direction: 10°N
Pressure: 30.16"   Gusts: NA
Location:  32.75°N, 113.99°W
Report Text: KNYL 192057Z 01003KT 10SM FEW250 19/04 A3016 RMK AO2 SLP211 T01890039 58029
Loading
Personal Weather Stations






























Interactive Weather Map New forecast layout! Learn more

10-Day Weather Forecast

Advertisements
Track Severe Weather on mobile